Terminal Aerodrome Forecast
Issued by NWS Charleston, SC

Current Version | Previous Version | Text Only | Print | Product List | Glossary On
Versions: 1 2 3 4 5 6 7 8 9 10 11 12 13 14 15 16 17 18 19 20 21 22 23
000
FTUS42 KCHS 040524
TAFSAV
TAF
KSAV 040524Z 0406/0506 VRB04KT P6SM SCT040 BKN250
     FM041800 11007KT P6SM BKN060
     FM050000 17003KT P6SM SCT040 SCT250=

USA.gov is the U.S. government's official web portal to all federal, state and local government web resources and services.